Stations météo

réclame
Mon MeteoGroup
Baza, Espagne (8424): Température de l'air & dewpoint: 17.11.2017 12:00:00 - 23.11.2017 12:00:00 (CET)Baza, Espagne (8424): Vitesse du vent & gusts: 17.11.2017 12:00:00 - 23.11.2017 12:00:00 (CET)Baza, Espagne (8424): Direction du vent: 17.11.2017 12:00:00 - 23.11.2017 12:00:00 (CET)Baza, Espagne (8424): visibility: 17.11.2017 12:00:00 - 23.11.2017 12:00:00 (CET)Baza, Espagne (8424): Ensoleillement: 17.11.2017 12:00:00 - 23.11.2017 12:00:00 (CET)Baza, Espagne (8424): Quantités de précipitations: 17.11.2017 12:00:00 - 23.11.2017 12:00:00 (CET)
Date & Time tt [°C] td [°C] ff [km/h] ff [knt] fx [km/h] fx [knt] dd vv [km] sd [min] rr [mm]
23.11.2017 12:00:00 - - - - - - - - - -
23.11.2017 11:00:00 9,2 -3,0 4 2 9 5 NNW 20 60 0,0
23.11.2017 10:00:00 5,0 -3,9 3 2 9 5 W 20 15 0,0
23.11.2017 09:00:00 -0,7 -4,2 2 1 12 6 SSE 20 0 0,0
23.11.2017 08:00:00 -2,4 -4,5 7 4 8 5 S 19 0 0,0
23.11.2017 07:00:00 -2,0 -4,8 1 1 5 3 W 20 0 -
23.11.2017 06:00:00 -1,8 -4,2 5 3 10 5 S 20 0 0,0
23.11.2017 05:00:00 -1,7 -4,2 7 4 9 5 S 20 0 0,0
23.11.2017 04:00:00 -1,2 -4,5 2 1 5 3 W 20 0 0,0
23.11.2017 03:00:00 -0,1 -4,5 2 1 8 4 SE 20 0 0,0
23.11.2017 02:00:00 1,0 -5,4 3 2 9 5 WSW 20 0 0,0
23.11.2017 01:00:00 1,5 -5,1 6 4 12 6 SSE 20 0 -
23.11.2017 00:00:00 2,8 -5,1 8 5 13 7 S 20 0 0,0
22.11.2017 23:00:00 3,2 -4,5 8 5 13 7 SSE 20 0 0,0
22.11.2017 22:00:00 4,8 -4,2 8 5 15 8 SSE 20 0 0,0
22.11.2017 21:00:00 6,1 -3,9 11 6 15 8 SSE 20 0 0,0
22.11.2017 20:00:00 7,5 -3,0 10 6 15 8 SSE 20 0 0,0
22.11.2017 19:00:00 10,0 -2,5 10 5 12 7 S 20 0 -
22.11.2017 18:00:00 15,1 -3,3 6 3 18 10 SW 20 0 0,0
22.11.2017 17:00:00 18,2 -3,3 11 6 21 11 W 20 11 0,0
22.11.2017 16:00:00 18,5 -3,6 12 7 23 13 W 20 56 0,0
22.11.2017 15:00:00 18,4 -3,9 11 6 22 12 W 20 60 0,0
22.11.2017 14:00:00 17,4 -1,7 4 2 9 5 SW 20 60 0,0
22.11.2017 13:00:00 13,4 -2,5 3 2 10 6 NNW 20 60 -
22.11.2017 12:00:00 9,7 -2,0 6 4 11 6 N 20 60 0,0
22.11.2017 11:00:00 5,9 -2,0 5 3 8 4 NNW 20 60 0,0
22.11.2017 10:00:00 2,7 -2,2 3 2 7 4 NW 20 16 0,0
22.11.2017 09:00:00 -1,7 -3,0 3 1 6 3 S 20 0 0,0
22.11.2017 08:00:00 -3,2 -4,8 6 3 7 4 SE 20 0 0,0
22.11.2017 07:00:00 -2,5 -4,2 2 1 8 4 S 20 0 -
22.11.2017 06:00:00 -2,1 -4,2 7 4 8 5 SSE 20 0 0,0
22.11.2017 05:00:00 -1,3 -3,6 6 3 7 4 S 20 0 0,0
22.11.2017 04:00:00 -0,8 -3,6 4 2 6 4 SSE 20 0 0,0
22.11.2017 03:00:00 0,2 -3,0 3 2 6 4 WSW 20 0 0,0
22.11.2017 02:00:00 0,9 -2,7 3 2 9 5 WSW 20 0 0,0
22.11.2017 01:00:00 1,6 -3,0 6 3 14 7 SSE 20 0 -
22.11.2017 00:00:00 3,0 -2,5 7 4 10 5 S 20 0 0,0
21.11.2017 23:00:00 4,1 -0,7 6 3 11 6 S 20 0 0,0
21.11.2017 22:00:00 5,4 -2,2 5 3 14 8 ENE 20 0 0,0
21.11.2017 21:00:00 6,7 -2,7 11 6 13 7 SE 20 0 0,0
21.11.2017 20:00:00 7,7 -2,2 10 5 12 6 SE 20 0 0,0
21.11.2017 19:00:00 10,3 -2,0 8 5 13 7 SSE 20 0 -
21.11.2017 18:00:00 16,3 -2,2 3 1 11 6 W 15 2 0,0
21.11.2017 17:00:00 19,2 -6,4 6 4 12 7 NW 20 19 0,0
21.11.2017 16:00:00 19,4 -4,8 5 3 11 6 NW 20 57 0,0
21.11.2017 15:00:00 19,2 -3,0 5 3 12 7 NW 20 60 0,0
21.11.2017 14:00:00 16,8 -2,0 4 2 11 6 NNE 20 60 0,0
21.11.2017 13:00:00 15,2 -2,0 3 2 8 5 N 18 60 -
21.11.2017 12:00:00 11,5 -1,2 3 1 8 4 N 20 60 0,0
21.11.2017 11:00:00 6,9 -1,2 5 3 9 5 NNW 20 60 0,0
21.11.2017 10:00:00 2,9 -2,0 4 2 6 4 W 20 17 0,0
21.11.2017 09:00:00 -1,4 -2,5 4 2 6 3 SE 20 0 0,0
21.11.2017 08:00:00 -2,6 -3,9 4 2 9 5 S 20 0 0,0
21.11.2017 07:00:00 -2,0 -3,3 3 2 9 5 SW 20 0 -
21.11.2017 06:00:00 -2,1 -3,6 6 3 9 5 SSE 20 0 0,0
21.11.2017 05:00:00 -1,5 -3,3 5 3 8 4 SSE 20 0 0,0
21.11.2017 04:00:00 -0,3 -3,3 4 2 9 5 WSW 20 0 0,0
21.11.2017 03:00:00 0,0 -2,7 10 5 10 6 SSE 20 0 0,0
21.11.2017 02:00:00 1,1 -2,5 3 2 10 6 S 20 0 0,0
21.11.2017 01:00:00 1,9 -2,5 7 4 8 5 SSE 20 0 -
21.11.2017 00:00:00 3,6 -2,5 4 2 6 4 S 20 0 0,0
20.11.2017 23:00:00 5,5 -2,7 4 2 12 6 WSW 20 0 0,0
20.11.2017 22:00:00 7,1 -4,5 9 5 14 8 SSE 20 0 0,0
20.11.2017 21:00:00 8,7 -4,5 10 5 15 8 SSE 20 0 0,0
20.11.2017 20:00:00 9,5 -4,5 11 6 16 9 SSE 20 0 0,0
20.11.2017 19:00:00 10,3 -3,0 11 6 13 7 SSE 20 0 -
20.11.2017 18:00:00 17,0 -3,3 7 4 11 6 SSW 20 3 0,0
20.11.2017 17:00:00 20,0 -4,5 8 4 16 9 W 20 19 0,0
20.11.2017 16:00:00 20,0 -5,1 9 5 15 8 W 20 59 0,0
20.11.2017 15:00:00 19,1 -0,3 5 3 9 5 NNW 20 60 0,0
20.11.2017 14:00:00 17,1 0,6 5 3 11 6 N 20 60 0,0
20.11.2017 13:00:00 14,6 1,5 6 3 10 6 NNW 20 60 -
20.11.2017 12:00:00 11,9 1,3 3 2 8 4 N 20 60 0,0
20.11.2017 11:00:00 7,4 1,3 3 1 7 4 NW 15 60 0,0
20.11.2017 10:00:00 2,8 1,3 2 1 5 3 SW 19 18 0,0
20.11.2017 09:00:00 -0,8 -1,4 4 2 7 4 SE 20 0 0,0
20.11.2017 08:00:00 -2,0 -3,0 4 2 6 4 SE 16 0 0,0
20.11.2017 07:00:00 -1,5 -2,5 5 3 8 4 SSE 20 0 -
20.11.2017 06:00:00 -1,1 -2,2 3 2 9 5 SSW 18 0 0,0
20.11.2017 05:00:00 -0,8 -2,2 6 3 6 4 S 16 0 0,0
20.11.2017 04:00:00 0,3 -1,2 4 2 8 4 S 16 0 0,0
20.11.2017 03:00:00 1,0 -0,7 5 3 7 4 SSW 16 0 0,0
20.11.2017 02:00:00 1,3 -1,0 6 3 8 4 SE 20 0 0,0
20.11.2017 01:00:00 1,9 -0,5 8 4 10 6 SSE 20 0 -
20.11.2017 00:00:00 2,9 -0,7 9 5 10 5 SE 20 0 0,0
19.11.2017 23:00:00 4,8 -0,3 6 3 12 6 S 17 0 0,0
19.11.2017 22:00:00 6,8 3,2 9 5 12 7 ESE 20 0 0,0
19.11.2017 21:00:00 8,8 2,1 8 4 19 10 SE 20 0 0,0
19.11.2017 20:00:00 9,9 4,3 11 6 16 9 SE 20 0 0,0
19.11.2017 19:00:00 12,5 5,0 11 6 21 12 SSE 20 0 -
19.11.2017 18:00:00 14,9 4,6 13 7 23 12 SSE 20 8 0,0
19.11.2017 17:00:00 19,2 2,5 11 6 18 10 SE 20 19 0,0
19.11.2017 16:00:00 20,6 0,0 8 5 13 7 SSE 20 57 0,0
19.11.2017 15:00:00 20,9 -1,0 5 3 10 6 S 20 60 0,0
19.11.2017 14:00:00 17,9 0,9 5 3 10 6 N 20 60 0,0
19.11.2017 13:00:00 15,7 1,5 3 2 10 5 NNW 20 60 -
19.11.2017 12:00:00 12,0 -0,3 5 3 8 4 NNW 20 60 0,0
19.11.2017 11:00:00 7,1 -0,5 2 1 7 4 W 20 60 0,0
19.11.2017 10:00:00 3,6 0,2 3 2 6 4 NNW 20 19 0,0
19.11.2017 09:00:00 0,3 -1,0 3 2 8 4 SW 20 0 0,0
19.11.2017 08:00:00 -0,8 -2,2 6 3 10 5 S 17 0 0,0
19.11.2017 07:00:00 -0,5 -2,0 5 3 7 4 SSE 20 0 -
19.11.2017 06:00:00 -0,3 -1,7 3 1 10 5 SSW 20 0 0,0
19.11.2017 05:00:00 0,2 -1,7 3 2 9 5 SSE 18 0 0,0
19.11.2017 04:00:00 0,5 -1,2 4 2 9 5 SSE 20 0 0,0
19.11.2017 03:00:00 0,9 -1,0 7 4 8 4 SSE 17 0 0,0
19.11.2017 02:00:00 1,9 -1,0 3 1 9 5 W 20 0 0,0
19.11.2017 01:00:00 2,7 -1,2 9 5 12 7 SE 20 0 -
19.11.2017 00:00:00 3,7 0,2 9 5 11 6 SSE 20 0 0,0
18.11.2017 23:00:00 5,2 1,9 9 5 13 7 SSE 20 0 0,0
18.11.2017 22:00:00 6,8 4,1 6 4 10 6 SE 14 0 0,0
18.11.2017 21:00:00 8,9 4,3 6 3 12 6 ESE 20 0 0,0
18.11.2017 20:00:00 11,1 4,5 9 5 20 11 SSE 20 0 0,0
18.11.2017 19:00:00 12,8 4,3 15 8 24 13 SSE 20 0 -
18.11.2017 18:00:00 14,9 2,7 13 7 25 14 SSE 20 9 0,0
18.11.2017 17:00:00 18,7 0,9 13 7 23 12 SSE 20 19 0,0
18.11.2017 16:00:00 20,1 -2,2 4 2 10 6 WNW 20 58 0,0
18.11.2017 15:00:00 19,4 -3,0 3 2 7 4 NNW 20 60 0,0
18.11.2017 14:00:00 17,0 -2,7 6 4 11 6 N 20 60 0,0
18.11.2017 13:00:00 14,6 1,5 7 4 11 6 N 20 60 -
18.11.2017 12:00:00 11,5 0,9 3 2 7 4 NNW 20 60 0,0
18.11.2017 11:00:00 6,9 1,7 5 3 8 4 NNW 20 60 0,0
18.11.2017 10:00:00 3,7 2,3 1 1 5 3 N 12 20 0,0
18.11.2017 09:00:00 -0,3 -1,0 2 1 5 3 S 14 0 0,0
18.11.2017 08:00:00 -1,6 -2,5 5 3 6 4 S 13 0 0,0
18.11.2017 07:00:00 -1,2 -2,2 3 2 5 3 SSE 17 0 -
18.11.2017 06:00:00 -0,6 -1,7 5 3 9 5 SSE 20 0 0,0
18.11.2017 05:00:00 0,3 -1,2 3 2 6 3 S 20 0 0,0
18.11.2017 04:00:00 0,7 -0,7 1 1 6 4 SSE 19 0 0,0
18.11.2017 03:00:00 1,1 -0,5 2 1 6 3 S 12 0 0,0
18.11.2017 02:00:00 2,0 -0,3 3 2 11 6 SSE 20 0 0,0
18.11.2017 01:00:00 2,9 0,0 9 5 11 6 SSE 20 0 -
18.11.2017 00:00:00 3,8 0,6 7 4 11 6 SSE 20 0 0,0
17.11.2017 23:00:00 5,2 2,7 9 5 13 7 SSE 20 0 0,0
17.11.2017 22:00:00 7,1 5,3 8 4 12 7 SE 12 0 0,0
17.11.2017 21:00:00 8,8 6,1 5 3 15 8 E 20 0 0,0
17.11.2017 20:00:00 10,8 7,3 11 6 22 12 SSE 20 0 0,0
17.11.2017 19:00:00 12,2 6,4 13 7 20 11 SSE 20 0 -
17.11.2017 18:00:00 15,9 0,9 7 4 11 6 S 20 10 0,0
17.11.2017 17:00:00 18,5 -2,0 2 1 9 5 N 20 25 0,0
17.11.2017 16:00:00 18,0 -0,3 5 3 13 7 N 20 57 0,0
17.11.2017 15:00:00 17,7 0,0 6 3 11 6 NW 20 60 0,0
17.11.2017 14:00:00 16,2 1,5 6 3 10 5 N 20 60 0,0
17.11.2017 13:00:00 14,2 1,7 4 2 8 4 NNW 20 60 -
17.11.2017 12:00:00 11,3 1,9 3 2 8 5 NNE 20 60 0,0

tt = Température de l'air
td = dewpoint
ff = Vitesse du vent
fx = gusts
dd = Direction du vent
vv = visibility
sd = Ensoleillement
rr = Quantités de précipitations

stations d'obs. à proximité